createdAt,value
2022-10-09T00:00:48.204Z,9.10
2022-10-09T00:03:17.403Z,9.10
2022-10-09T00:05:45.944Z,9.00
2022-10-09T00:08:14.347Z,9.00
2022-10-09T00:10:42.828Z,9.00
2022-10-09T00:13:11.103Z,9.00
2022-10-09T00:15:39.923Z,9.00
2022-10-09T00:18:09.922Z,8.90
2022-10-09T00:20:38.925Z,8.80
2022-10-09T00:23:07.573Z,8.80
2022-10-09T00:25:36.713Z,8.90
2022-10-09T00:28:05.725Z,8.70
2022-10-09T00:30:34.183Z,8.80
2022-10-09T00:33:02.481Z,8.80
2022-10-09T00:35:32.228Z,8.80
2022-10-09T00:38:00.528Z,8.70
2022-10-09T00:40:28.727Z,8.80
2022-10-09T00:42:57.488Z,8.70
2022-10-09T00:45:26.168Z,8.80
2022-10-09T00:47:54.847Z,8.70
2022-10-09T00:50:24.298Z,8.60
2022-10-09T00:52:55.976Z,8.60
2022-10-09T00:55:25.358Z,8.60
2022-10-09T00:57:55.170Z,8.70
2022-10-09T01:00:23.617Z,8.70
2022-10-09T01:02:52.439Z,8.60
2022-10-09T01:05:21.118Z,8.60
2022-10-09T01:07:50.626Z,8.50
2022-10-09T01:10:25.588Z,8.60
2022-10-09T01:12:56.328Z,8.60
2022-10-09T01:15:26.540Z,8.60
2022-10-09T01:17:57.498Z,8.60
2022-10-09T01:20:37.276Z,8.60
2022-10-09T01:23:13.437Z,8.60
2022-10-09T01:25:47.415Z,8.60
2022-10-09T01:28:17.582Z,8.60
2022-10-09T01:30:46.910Z,8.60
2022-10-09T01:33:16.397Z,8.50
2022-10-09T01:35:46.378Z,8.50
2022-10-09T01:38:15.367Z,8.40
2022-10-09T01:40:44.315Z,8.40
2022-10-09T01:43:12.626Z,8.50
2022-10-09T01:45:43.386Z,8.40
2022-10-09T01:48:14.225Z,8.40
2022-10-09T01:50:45.303Z,8.30
2022-10-09T01:53:16.956Z,8.30
2022-10-09T01:55:46.187Z,8.30
2022-10-09T01:58:18.979Z,8.30
2022-10-09T02:00:52.889Z,8.30
2022-10-09T02:03:21.511Z,8.30
2022-10-09T02:05:51.380Z,8.30
2022-10-09T02:08:20.753Z,8.40
2022-10-09T02:10:51.750Z,8.30
2022-10-09T02:13:20.001Z,8.40
2022-10-09T02:15:51.262Z,8.40
2022-10-09T02:18:23.001Z,8.40
2022-10-09T02:20:53.293Z,8.30
2022-10-09T02:23:23.203Z,8.30
2022-10-09T02:25:51.719Z,8.20
2022-10-09T02:28:19.971Z,8.30
2022-10-09T02:30:53.382Z,8.20
2022-10-09T02:33:27.775Z,8.20
2022-10-09T02:35:56.046Z,8.20
2022-10-09T02:38:24.294Z,8.20
2022-10-09T02:40:52.527Z,8.20
2022-10-09T02:43:20.846Z,8.20
2022-10-09T02:45:50.527Z,8.20
2022-10-09T02:48:18.917Z,8.20
2022-10-09T02:50:47.239Z,8.20
2022-10-09T02:53:15.517Z,8.10
2022-10-09T02:55:43.758Z,8.10
2022-10-09T02:58:12.266Z,8.20
2022-10-09T03:00:40.661Z,8.10
2022-10-09T03:03:10.358Z,8.10
2022-10-09T03:05:38.752Z,8.10
2022-10-09T03:08:06.970Z,8.10
2022-10-09T03:10:35.241Z,8.10
2022-10-09T03:13:03.540Z,8.00
2022-10-09T03:15:34.971Z,8.00
2022-10-09T03:18:03.262Z,8.00
2022-10-09T03:20:33.001Z,8.00
2022-10-09T03:23:01.250Z,8.00
2022-10-09T03:25:29.519Z,8.00
2022-10-09T03:27:57.780Z,8.00
2022-10-09T03:30:25.998Z,8.00
2022-10-09T03:32:54.248Z,8.00
2022-10-09T03:35:22.567Z,7.90
2022-10-09T03:37:52.209Z,7.90
2022-10-09T03:40:20.447Z,7.90
2022-10-09T03:42:48.953Z,7.90
2022-10-09T03:45:17.280Z,7.90
2022-10-09T03:47:45.559Z,7.90
2022-10-09T03:50:13.854Z,7.80
2022-10-09T03:52:42.207Z,7.80
2022-10-09T03:55:11.952Z,7.70
2022-10-09T03:57:40.264Z,7.80
2022-10-09T04:00:08.971Z,7.70
2022-10-09T04:02:37.258Z,7.70
2022-10-09T04:05:06.162Z,7.70
2022-10-09T04:07:34.633Z,7.70
2022-10-09T04:10:02.972Z,7.70
2022-10-09T04:12:32.650Z,7.70
2022-10-09T04:15:00.871Z,7.70
2022-10-09T04:17:29.258Z,7.70
2022-10-09T04:19:57.650Z,7.80
2022-10-09T04:22:25.962Z,7.80
2022-10-09T04:24:54.244Z,7.70
2022-10-09T04:27:22.572Z,7.60
2022-10-09T04:29:52.253Z,7.60
2022-10-09T04:32:20.492Z,7.60
2022-10-09T04:34:48.886Z,7.60
2022-10-09T04:37:17.213Z,7.70
2022-10-09T04:39:45.422Z,7.70
2022-10-09T04:42:13.711Z,7.70
2022-10-09T04:44:41.904Z,7.70
2022-10-09T04:47:11.644Z,7.70
2022-10-09T04:49:39.963Z,7.70
2022-10-09T04:52:08.201Z,7.70
2022-10-09T04:54:36.421Z,7.70
2022-10-09T04:57:04.693Z,7.70
2022-10-09T04:59:32.922Z,7.60
2022-10-09T05:02:01.473Z,7.50
2022-10-09T05:04:31.257Z,7.50
2022-10-09T05:06:59.543Z,7.60
2022-10-09T05:09:27.762Z,7.70
2022-10-09T05:11:56.303Z,7.60
2022-10-09T05:14:24.644Z,7.60
2022-10-09T05:17:13.089Z,7.50
2022-10-09T05:19:43.001Z,7.50
2022-10-09T05:22:11.203Z,7.50
2022-10-09T05:24:39.390Z,7.40
2022-10-09T05:27:07.762Z,7.20
2022-10-09T05:29:36.044Z,7.30
2022-10-09T05:32:04.293Z,7.20
2022-10-09T05:34:32.643Z,7.30
2022-10-09T05:37:02.453Z,7.30
2022-10-09T05:39:32.523Z,7.20
2022-10-09T05:42:00.822Z,7.20
2022-10-09T05:44:29.082Z,7.20
2022-10-09T05:46:57.302Z,7.30
2022-10-09T05:49:25.584Z,7.30
2022-10-09T05:51:54.212Z,7.30
2022-10-09T05:54:23.824Z,7.30
2022-10-09T05:56:52.062Z,7.40
2022-10-09T05:59:20.803Z,7.40
2022-10-09T06:01:50.265Z,7.40
2022-10-09T06:04:19.333Z,7.50
2022-10-09T06:06:48.683Z,7.50
2022-10-09T06:09:18.104Z,7.60
2022-10-09T06:11:47.942Z,7.60
2022-10-09T06:14:16.191Z,7.70
2022-10-09T06:16:45.564Z,7.70
2022-10-09T06:19:15.005Z,7.80
2022-10-09T06:21:43.320Z,7.80
2022-10-09T06:24:13.522Z,7.80
2022-10-09T06:26:41.893Z,7.80
2022-10-09T06:29:11.561Z,8.00
2022-10-09T06:31:39.929Z,8.00
2022-10-09T06:34:08.223Z,8.10
2022-10-09T06:36:36.712Z,8.20
2022-10-09T06:39:06.184Z,8.20
2022-10-09T06:41:34.791Z,8.30
2022-10-09T06:44:04.363Z,8.30
2022-10-09T06:46:35.382Z,8.40
2022-10-09T06:49:04.501Z,8.40
2022-10-09T06:51:33.052Z,8.50
2022-10-09T06:54:02.262Z,8.60
2022-10-09T06:56:31.384Z,8.70
2022-10-09T06:59:01.292Z,8.80
2022-10-09T07:01:32.255Z,8.80
2022-10-09T07:04:03.063Z,8.90
2022-10-09T07:06:32.294Z,8.90
2022-10-09T07:09:01.181Z,9.00
2022-10-09T07:11:30.657Z,9.00
2022-10-09T07:13:59.772Z,9.10
2022-10-09T07:16:28.986Z,9.20
2022-10-09T07:18:58.222Z,9.30
2022-10-09T07:21:28.383Z,9.30
2022-10-09T07:23:56.640Z,9.40
2022-10-09T07:26:26.162Z,9.50
2022-10-09T07:28:54.746Z,9.60
2022-10-09T07:31:23.914Z,9.70
2022-10-09T07:33:53.282Z,9.80
2022-10-09T07:36:21.783Z,9.80
2022-10-09T07:38:52.738Z,9.90
2022-10-09T07:41:21.805Z,10.00
2022-10-09T07:43:50.183Z,10.10
2022-10-09T07:46:19.694Z,10.20
2022-10-09T07:48:48.619Z,10.30
2022-10-09T07:51:18.652Z,10.40
2022-10-09T07:53:47.323Z,10.40
2022-10-09T07:56:17.183Z,10.40
2022-10-09T07:58:45.484Z,10.50
2022-10-09T08:01:18.883Z,10.60
2022-10-09T08:03:48.634Z,10.60
2022-10-09T08:06:17.302Z,10.70
2022-10-09T08:08:45.542Z,10.70
2022-10-09T08:11:15.392Z,10.80
2022-10-09T08:13:45.523Z,10.90
2022-10-09T08:16:14.146Z,11.00
2022-10-09T08:18:42.710Z,11.10
2022-10-09T08:21:12.420Z,11.20
2022-10-09T08:23:40.682Z,11.40
2022-10-09T08:26:14.781Z,11.50
2022-10-09T08:28:44.624Z,11.60
2022-10-09T08:31:14.223Z,11.60
2022-10-09T08:33:44.053Z,11.70
2022-10-09T08:36:14.572Z,11.70
2022-10-09T08:38:48.149Z,11.70
2022-10-09T08:41:22.253Z,11.80
2022-10-09T08:43:54.293Z,11.90
2022-10-09T08:46:24.215Z,12.00
2022-10-09T08:48:55.119Z,12.00
2022-10-09T08:51:26.203Z,12.10
2022-10-09T08:53:57.712Z,12.30
2022-10-09T08:56:26.963Z,12.30
2022-10-09T08:58:57.645Z,12.30
2022-10-09T09:01:32.470Z,12.50
2022-10-09T09:04:11.493Z,12.60
2022-10-09T09:06:42.092Z,12.80
2022-10-09T09:09:17.123Z,12.90
2022-10-09T09:11:48.700Z,12.70
2022-10-09T09:14:29.341Z,12.90
2022-10-09T09:17:00.402Z,13.10
2022-10-09T09:19:44.696Z,13.10
2022-10-09T09:22:14.442Z,13.20
2022-10-09T09:24:44.782Z,13.20
2022-10-09T09:27:14.529Z,13.30
2022-10-09T09:29:46.073Z,13.40
2022-10-09T09:32:17.063Z,13.50
2022-10-09T09:34:45.513Z,13.60
2022-10-09T09:37:14.143Z,13.60
2022-10-09T09:42:31.263Z,13.60
2022-10-09T09:45:03.563Z,13.60
2022-10-09T09:47:34.844Z,13.70
2022-10-09T09:50:03.874Z,13.80
2022-10-09T09:52:36.251Z,13.80
2022-10-09T09:55:05.070Z,13.80
2022-10-09T09:57:35.692Z,13.80
2022-10-09T10:00:19.784Z,13.90
2022-10-09T10:02:48.445Z,13.90
2022-10-09T10:05:18.843Z,14.10
2022-10-09T10:07:50.175Z,14.10
2022-10-09T10:10:24.748Z,14.10
2022-10-09T10:12:57.843Z,14.10
2022-10-09T10:15:28.394Z,14.10
2022-10-09T10:17:58.973Z,14.20
2022-10-09T10:20:27.763Z,14.30
2022-10-09T10:22:57.073Z,14.20
2022-10-09T10:25:26.716Z,14.30
2022-10-09T10:27:59.433Z,14.40
2022-10-09T10:30:29.314Z,14.50
2022-10-09T10:33:00.696Z,14.50
2022-10-09T10:35:30.411Z,14.60
2022-10-09T10:38:05.243Z,14.60
2022-10-09T10:40:34.670Z,14.80
2022-10-09T10:43:07.697Z,14.70
2022-10-09T10:45:41.035Z,14.50
2022-10-09T10:48:12.399Z,14.50
2022-10-09T10:50:44.039Z,14.80
2022-10-09T10:53:16.008Z,15.00
2022-10-09T10:55:50.448Z,14.80
2022-10-09T10:58:25.219Z,14.80
2022-10-09T11:01:01.120Z,15.00
2022-10-09T11:03:34.592Z,15.00
2022-10-09T11:06:06.137Z,15.10
2022-10-09T11:08:47.451Z,15.20
2022-10-09T11:11:20.419Z,15.20
2022-10-09T11:13:53.950Z,15.10
2022-10-09T11:16:33.086Z,15.20
2022-10-09T11:19:07.289Z,15.30
2022-10-09T11:21:41.071Z,15.40
2022-10-09T11:24:22.681Z,15.40
2022-10-09T11:26:59.667Z,15.50
2022-10-09T11:29:34.320Z,15.60
2022-10-09T11:32:07.180Z,15.60
2022-10-09T11:34:42.645Z,15.60
2022-10-09T11:37:15.571Z,15.60
2022-10-09T11:39:44.446Z,15.50
2022-10-09T11:42:14.328Z,15.50
2022-10-09T11:44:48.234Z,15.60
2022-10-09T11:47:22.129Z,15.70
2022-10-09T11:50:00.617Z,15.60
2022-10-09T11:52:31.509Z,15.60
2022-10-09T11:55:08.848Z,15.70
2022-10-09T11:57:37.167Z,15.70
2022-10-09T12:00:06.874Z,15.80
2022-10-09T12:02:37.434Z,15.80
2022-10-09T12:05:17.117Z,15.80
2022-10-09T12:07:45.430Z,15.90
2022-10-09T12:10:23.619Z,15.90
2022-10-09T12:12:57.128Z,15.90
2022-10-09T12:15:27.359Z,15.90
2022-10-09T12:17:59.278Z,15.90
2022-10-09T12:20:28.215Z,15.90
2022-10-09T12:23:24.763Z,15.90
2022-10-09T12:25:47.107Z,16.10
2022-10-09T12:28:19.180Z,16.10
2022-10-09T12:30:49.183Z,16.10
2022-10-09T12:33:20.159Z,16.00
2022-10-09T12:35:50.719Z,16.00
2022-10-09T12:38:19.358Z,16.00
2022-10-09T12:40:49.178Z,16.10
2022-10-09T12:43:19.401Z,16.00
2022-10-09T12:45:48.634Z,16.20
2022-10-09T12:48:21.130Z,16.10
2022-10-09T12:50:49.919Z,16.20
2022-10-09T12:53:20.127Z,16.10
2022-10-09T12:55:49.959Z,16.20
2022-10-09T12:58:21.608Z,16.20
2022-10-09T13:00:51.338Z,16.20
2022-10-09T13:03:25.939Z,16.20
2022-10-09T13:05:55.044Z,16.20
2022-10-09T13:08:26.201Z,16.10
2022-10-09T13:10:54.831Z,16.10
2022-10-09T13:13:24.582Z,16.10
2022-10-09T13:16:02.459Z,16.30
2022-10-09T13:18:32.210Z,16.30
2022-10-09T13:21:01.192Z,16.30
2022-10-09T13:23:30.443Z,16.30
2022-10-09T13:26:03.609Z,16.30
2022-10-09T13:28:32.224Z,16.30
2022-10-09T13:31:07.218Z,16.10
2022-10-09T13:33:36.900Z,16.10
2022-10-09T13:36:05.110Z,16.10
2022-10-09T13:38:35.134Z,16.10
2022-10-09T13:41:04.089Z,16.10
2022-10-09T13:43:32.510Z,16.20
2022-10-09T13:46:00.772Z,16.20
2022-10-09T13:48:29.810Z,16.20
2022-10-09T13:51:00.010Z,16.20
2022-10-09T13:53:28.769Z,16.20
2022-10-09T13:56:00.758Z,16.10
2022-10-09T13:58:29.715Z,16.10
2022-10-09T14:00:58.364Z,16.10
2022-10-09T14:03:26.730Z,16.10
2022-10-09T14:06:00.559Z,16.00
2022-10-09T14:08:28.907Z,16.00
2022-10-09T14:10:57.378Z,16.00
2022-10-09T14:13:25.618Z,16.00
2022-10-09T14:15:54.364Z,16.00
2022-10-09T14:18:23.087Z,16.00
2022-10-09T14:20:51.339Z,16.10
2022-10-09T14:23:20.968Z,16.10
2022-10-09T14:25:49.287Z,16.10
2022-10-09T14:28:17.646Z,16.10
2022-10-09T14:30:46.070Z,16.00
2022-10-09T14:33:14.345Z,16.00
2022-10-09T14:35:42.637Z,15.90
2022-10-09T14:38:10.976Z,16.00
2022-10-09T14:40:44.185Z,16.00
2022-10-09T14:43:12.794Z,15.90
2022-10-09T14:45:41.026Z,15.90
2022-10-09T14:48:09.328Z,15.90
2022-10-09T14:50:37.844Z,15.80
2022-10-09T14:53:06.054Z,15.90
2022-10-09T14:55:35.445Z,15.80
2022-10-09T14:58:05.077Z,15.80
2022-10-09T15:00:33.255Z,15.80
2022-10-09T15:03:01.476Z,15.70
2022-10-09T15:05:29.677Z,15.70
2022-10-09T15:07:57.935Z,15.70
2022-10-09T15:10:26.175Z,15.70
2022-10-09T15:12:54.345Z,15.70
2022-10-09T15:15:24.367Z,15.70
2022-10-09T15:17:53.655Z,15.70
2022-10-09T15:20:21.919Z,15.60
2022-10-09T15:22:50.055Z,15.60
2022-10-09T15:25:18.384Z,15.60
2022-10-09T15:27:49.190Z,15.50
2022-10-09T15:30:19.624Z,15.50
2022-10-09T15:32:49.276Z,15.50
2022-10-09T15:35:17.565Z,15.50
2022-10-09T15:37:45.866Z,15.50
2022-10-09T15:40:14.135Z,15.40
2022-10-09T15:42:45.384Z,15.40
2022-10-09T15:45:13.875Z,15.40
2022-10-09T15:47:51.978Z,15.40
2022-10-09T15:50:21.705Z,15.40
2022-10-09T15:52:49.985Z,15.30
2022-10-09T15:55:18.665Z,15.20
2022-10-09T15:57:47.105Z,15.10
2022-10-09T16:00:17.426Z,15.10
2022-10-09T16:02:45.624Z,15.00
2022-10-09T16:05:13.916Z,15.00
2022-10-09T16:07:43.535Z,14.90
2022-10-09T16:10:11.905Z,14.80
2022-10-09T16:12:40.245Z,14.70
2022-10-09T16:15:09.136Z,14.70
2022-10-09T16:17:40.255Z,14.60
2022-10-09T16:20:08.915Z,14.50
2022-10-09T16:22:37.235Z,14.50
2022-10-09T16:25:07.586Z,14.50
2022-10-09T16:27:35.846Z,14.40
2022-10-09T16:30:04.179Z,14.30
2022-10-09T16:32:32.484Z,14.30
2022-10-09T16:35:00.686Z,14.20
2022-10-09T16:37:28.865Z,14.10
2022-10-09T16:39:57.186Z,14.10
2022-10-09T16:42:26.988Z,14.00
2022-10-09T16:44:55.215Z,14.00
2022-10-09T16:47:23.497Z,13.90
2022-10-09T16:49:54.456Z,13.80
2022-10-09T16:52:22.712Z,13.70
2022-10-09T16:54:51.232Z,13.70
2022-10-09T16:57:19.765Z,13.70
2022-10-09T16:59:49.746Z,13.60
2022-10-09T17:02:18.076Z,13.60
2022-10-09T17:04:46.356Z,13.50
2022-10-09T17:07:14.694Z,13.40
2022-10-09T17:09:43.355Z,13.40
2022-10-09T17:12:13.166Z,13.30
2022-10-09T17:14:41.894Z,13.30
2022-10-09T17:17:12.686Z,13.20
2022-10-09T17:19:41.144Z,13.10
2022-10-09T17:22:09.456Z,13.10
2022-10-09T17:24:37.717Z,13.00
2022-10-09T17:27:09.902Z,12.90
2022-10-09T17:29:38.377Z,12.90
2022-10-09T17:32:08.197Z,12.90
2022-10-09T17:34:43.132Z,12.80
2022-10-09T17:37:11.686Z,12.80
2022-10-09T17:39:39.947Z,12.70
2022-10-09T17:42:08.227Z,12.70
2022-10-09T17:44:36.468Z,12.60
2022-10-09T17:47:05.508Z,12.60
2022-10-09T17:49:33.747Z,12.60
2022-10-09T17:52:03.428Z,12.50
2022-10-09T17:54:31.640Z,12.40
2022-10-09T17:57:00.970Z,12.40
2022-10-09T17:59:29.257Z,12.30
2022-10-09T18:01:57.527Z,12.30
2022-10-09T18:04:25.765Z,12.30
2022-10-09T18:06:53.987Z,12.20
2022-10-09T18:09:23.857Z,12.20
2022-10-09T18:11:52.187Z,12.20
2022-10-09T18:14:20.426Z,12.20
2022-10-09T18:16:48.627Z,12.10
2022-10-09T18:19:18.658Z,12.10
2022-10-09T18:21:47.987Z,12.00
2022-10-09T18:24:16.632Z,12.00
2022-10-09T18:26:46.583Z,12.00
2022-10-09T18:29:14.789Z,12.00
2022-10-09T18:31:43.219Z,11.90
2022-10-09T18:34:11.554Z,11.90
2022-10-09T18:36:40.045Z,11.90
2022-10-09T18:39:10.668Z,11.80
2022-10-09T18:41:39.077Z,11.80
2022-10-09T18:44:12.746Z,11.70
2022-10-09T18:46:44.088Z,11.70
2022-10-09T18:49:14.515Z,11.60
2022-10-09T18:51:46.727Z,11.60
2022-10-09T18:54:18.174Z,11.50
2022-10-09T18:56:46.716Z,11.50
2022-10-09T18:59:20.391Z,11.50
2022-10-09T19:01:49.086Z,11.50
2022-10-09T19:04:17.291Z,11.40
2022-10-09T19:06:45.698Z,11.40
2022-10-09T19:09:14.126Z,11.30
2022-10-09T19:11:42.529Z,11.30
2022-10-09T19:14:10.827Z,11.30
2022-10-09T19:16:40.916Z,11.20
2022-10-09T19:19:09.187Z,11.20
2022-10-09T19:21:39.507Z,11.20
2022-10-09T19:24:07.888Z,11.20
2022-10-09T19:26:36.419Z,11.20
2022-10-09T19:29:04.857Z,11.30
2022-10-09T19:31:33.826Z,11.30
2022-10-09T19:34:03.747Z,11.30
2022-10-09T19:36:34.465Z,11.30
2022-10-09T19:39:03.027Z,11.30
2022-10-09T19:41:31.387Z,11.30
2022-10-09T19:43:59.806Z,11.40
2022-10-09T19:46:28.407Z,11.30
2022-10-09T19:48:56.846Z,11.40
2022-10-09T19:51:27.388Z,11.40
2022-10-09T19:53:55.678Z,11.30
2022-10-09T19:56:25.107Z,11.30
2022-10-09T19:58:53.987Z,11.30
2022-10-09T20:01:22.805Z,11.20
2022-10-09T20:03:55.547Z,11.20
2022-10-09T20:06:23.797Z,11.20
2022-10-09T20:08:54.217Z,11.20
2022-10-09T20:11:22.817Z,11.10
2022-10-09T20:13:55.757Z,11.10
2022-10-09T20:16:25.082Z,11.10
2022-10-09T20:18:53.368Z,11.10
2022-10-09T20:21:21.579Z,11.10
2022-10-09T20:23:49.867Z,11.00
2022-10-09T20:26:20.829Z,11.00
2022-10-09T20:28:49.427Z,11.00
2022-10-09T20:31:18.787Z,11.00
2022-10-09T20:33:48.103Z,10.90
2022-10-09T20:36:20.916Z,10.90
2022-10-09T20:38:49.130Z,10.90
2022-10-09T20:41:17.546Z,10.90
2022-10-09T20:43:50.756Z,10.80
2022-10-09T20:46:18.996Z,10.80
2022-10-09T20:48:47.227Z,10.80
2022-10-09T20:51:15.807Z,10.80
2022-10-09T20:53:44.128Z,10.70
2022-10-09T20:56:13.909Z,10.70
2022-10-09T20:58:42.987Z,10.70
2022-10-09T21:01:14.351Z,10.70
2022-10-09T21:03:42.568Z,10.70
2022-10-09T21:06:12.077Z,10.60
2022-10-09T21:08:40.287Z,10.60
2022-10-09T21:11:09.027Z,10.60
2022-10-09T21:13:37.987Z,10.50
2022-10-09T21:16:07.179Z,10.50
2022-10-09T21:18:37.317Z,10.50
2022-10-09T21:21:06.728Z,10.40
2022-10-09T21:23:35.138Z,10.50
2022-10-09T21:26:03.538Z,10.40
2022-10-09T21:28:32.227Z,10.40
2022-10-09T21:31:00.639Z,10.40
2022-10-09T21:33:28.857Z,10.40
2022-10-09T21:35:58.536Z,10.40
2022-10-09T21:38:26.806Z,10.40
2022-10-09T21:40:55.008Z,10.30
2022-10-09T21:43:23.248Z,10.30
2022-10-09T21:45:51.708Z,10.30
2022-10-09T21:48:20.088Z,10.30
2022-10-09T21:50:48.356Z,10.30
2022-10-09T21:53:18.063Z,10.30
2022-10-09T21:55:46.469Z,10.30
2022-10-09T21:58:14.657Z,10.30
2022-10-09T22:00:42.858Z,10.30
2022-10-09T22:03:11.576Z,10.30
2022-10-09T22:05:40.645Z,10.30
2022-10-09T22:08:08.861Z,10.30
2022-10-09T22:10:42.508Z,10.30
2022-10-09T22:13:10.839Z,10.30
2022-10-09T22:15:41.197Z,10.20
2022-10-09T22:18:09.639Z,10.20
2022-10-09T22:20:41.258Z,10.20
2022-10-09T22:23:09.696Z,10.10
2022-10-09T22:25:39.587Z,10.10
2022-10-09T22:28:07.871Z,10.00
2022-10-09T22:30:36.221Z,10.00
2022-10-09T22:33:04.445Z,9.90
2022-10-09T22:35:32.658Z,9.90
2022-10-09T22:38:00.976Z,9.90
2022-10-09T22:40:29.207Z,9.80
2022-10-09T22:42:58.848Z,9.80
2022-10-09T22:45:27.167Z,9.80
2022-10-09T22:47:55.367Z,9.70
2022-10-09T22:50:23.616Z,9.70
2022-10-09T22:52:52.064Z,9.60
2022-10-09T22:55:20.657Z,9.60
2022-10-09T22:57:49.029Z,9.60
2022-10-09T23:00:18.843Z,9.50
2022-10-09T23:02:47.323Z,9.50
2022-10-09T23:05:15.754Z,9.50
2022-10-09T23:07:44.048Z,9.40
2022-10-09T23:10:12.251Z,9.40
2022-10-09T23:12:40.500Z,9.40
2022-10-09T23:15:09.539Z,9.40
2022-10-09T23:17:39.356Z,9.30
2022-10-09T23:20:10.486Z,9.30
2022-10-09T23:22:38.785Z,9.30
2022-10-09T23:25:07.908Z,9.20
2022-10-09T23:27:36.151Z,9.20
2022-10-09T23:30:04.473Z,9.20
2022-10-09T23:32:32.871Z,9.10
2022-10-09T23:35:02.596Z,9.10
2022-10-09T23:37:30.858Z,9.10
2022-10-09T23:39:59.234Z,9.10
2022-10-09T23:42:27.680Z,9.10
2022-10-09T23:44:55.981Z,9.10
2022-10-09T23:47:24.250Z,9.00
2022-10-09T23:49:52.688Z,9.00
2022-10-09T23:52:22.398Z,9.00
2022-10-09T23:54:50.721Z,9.00
2022-10-09T23:57:19.340Z,9.00
2022-10-09T23:59:47.580Z,9.00
